Time;durP1;ratioP1;P1;durP2;ratioP2;P2;SDS_P1;SDS_P2;PMS_P1;PMS_P2;Temp;Humidity;BMP_temperature;BMP_pressure;BME280_temperature;BME280_humidity;BME280_pressure;Samples;Min_cycle;Max_cycle;Signal;HPM_P1;HPM_P2
2023/07/31 00:00:55;;;;;;;12.88;4.75;;;17.50;99.90;;;17.68;88.26;100070.69;4989990;28;20523;-86
2023/07/31 00:03:22;;;;;;;13.02;4.13;;;17.50;99.90;;;17.60;88.72;100065.00;4980606;28;20044;-86
2023/07/31 00:05:49;;;;;;;11.55;4.57;;;17.40;99.90;;;17.64;88.90;100061.50;4976038;28;20488;-86
2023/07/31 00:08:17;;;;;;;13.45;4.15;;;17.40;99.90;;;17.59;88.84;100063.41;4979948;28;20146;-86
2023/07/31 00:10:44;;;;;;;12.32;4.70;;;17.40;99.90;;;17.56;88.90;100059.34;4963738;28;20491;-86
2023/07/31 00:13:12;;;;;;;13.07;4.75;;;17.40;99.90;;;17.51;89.78;100046.66;4977348;28;20150;-86
2023/07/31 00:15:40;;;;;;;15.15;4.97;;;17.40;99.90;;;17.51;89.71;100064.72;4977316;28;20038;-86
2023/07/31 00:18:07;;;;;;;12.02;4.78;;;17.40;99.90;;;17.51;90.00;100064.72;4971079;28;20138;-86
2023/07/31 00:20:35;;;;;;;15.32;4.40;;;17.40;99.90;;;17.41;91.02;100057.41;4975200;28;20399;-86
2023/07/31 00:23:02;;;;;;;12.63;4.03;;;17.30;99.90;;;17.44;91.33;100062.28;4977336;28;20126;-86
2023/07/31 00:25:29;;;;;;;12.27;4.65;;;17.30;99.90;;;17.45;91.02;100058.50;4974538;28;20423;-86
2023/07/31 00:27:57;;;;;;;13.73;4.90;;;17.30;99.90;;;17.48;90.28;100052.59;4967494;28;20051;-86
2023/07/31 00:30:25;;;;;;;14.68;5.00;;;17.40;99.90;;;17.45;91.03;100050.41;4972023;28;20510;-86
2023/07/31 00:32:53;;;;;;;12.68;5.03;;;17.30;99.90;;;17.47;90.52;100052.84;4973206;28;20039;-86
2023/07/31 00:35:21;;;;;;;15.80;5.18;;;17.30;99.90;;;17.46;90.55;100056.63;4996575;28;20114;-86
2023/07/31 00:37:48;;;;;;;13.52;5.13;;;17.30;99.90;;;17.42;90.86;100052.84;4977770;28;20407;-86
2023/07/31 00:40:15;;;;;;;18.02;5.53;;;17.30;99.90;;;17.39;91.52;100045.28;4969140;28;20134;-86
2023/07/31 00:42:43;;;;;;;11.80;5.00;;;17.30;99.90;;;17.38;91.47;100047.19;4973560;28;20046;-86
2023/07/31 00:45:11;;;;;;;15.98;5.80;;;17.30;99.90;;;17.38;91.56;100049.88;4985873;28;20078;-86
2023/07/31 00:47:38;;;;;;;14.13;5.03;;;17.30;99.90;;;17.48;90.78;100052.59;4996986;28;20559;-86
2023/07/31 00:50:09;;;;;;;13.60;4.75;;;17.30;99.90;;;17.45;91.06;100057.72;4977809;28;20517;-86
2023/07/31 00:52:37;;;;;;;17.52;5.35;;;17.30;99.90;;;17.46;90.78;100043.94;4973489;28;20043;-86
2023/07/31 00:55:06;;;;;;;14.05;4.90;;;17.30;99.90;;;17.54;90.33;100055.31;4973659;28;20542;-86
2023/07/31 00:57:34;;;;;;;12.23;5.18;;;17.40;99.90;;;17.50;89.85;100039.66;4991099;28;20074;-86
2023/07/31 01:00:03;;;;;;;12.15;4.90;;;17.40;99.90;;;17.55;89.33;100048.81;4977151;28;20067;-86
2023/07/31 01:02:30;;;;;;;13.55;5.18;;;17.40;99.90;;;17.49;89.38;100043.44;4987226;28;20150;-86
2023/07/31 01:04:57;;;;;;;12.85;5.00;;;17.30;99.90;;;17.54;89.41;100047.22;4994771;28;20126;-86
2023/07/31 01:07:36;;;;;;;15.52;5.10;;;17.40;99.90;;;17.55;88.79;100041.53;4977841;28;20042;-86
2023/07/31 01:10:12;;;;;;;16.27;4.95;;;17.30;99.90;;;17.54;89.33;100039.94;4983590;28;20054;-86
2023/07/31 01:12:41;;;;;;;16.30;5.00;;;17.40;99.90;;;17.53;89.03;100045.59;4983040;28;20586;-86
2023/07/31 01:15:10;;;;;;;17.75;4.85;;;17.30;99.90;;;17.48;89.51;100047.19;5000015;28;20081;-86
2023/07/31 01:17:38;;;;;;;14.88;4.93;;;17.30;99.90;;;17.42;89.96;100050.97;4987249;28;20406;-86
2023/07/31 01:20:12;;;;;;;15.52;4.78;;;17.30;99.90;;;17.47;89.78;100040.19;4978757;28;20070;-86
2023/07/31 01:23:13;;;;;;;13.10;5.40;;;17.30;99.90;;;17.51;89.28;100041.25;4984366;28;20051;-86
2023/07/31 01:26:11;;;;;;;23.17;5.55;;;17.30;99.90;;;17.55;88.68;100046.13;4976939;28;20062;-86
2023/07/31 01:28:57;;;;;;;16.45;4.68;;;17.30;99.90;;;17.53;88.70;100045.59;4973851;28;20070;-86
2023/07/31 01:31:27;;;;;;;17.42;4.78;;;17.30;99.90;;;17.52;88.53;100055.56;4993871;28;20077;-86
2023/07/31 01:33:59;;;;;;;16.05;5.10;;;17.30;99.90;;;17.44;89.21;100051.50;4972245;28;20097;-86
2023/07/31 01:36:27;;;;;;;13.60;5.03;;;17.30;99.90;;;17.49;88.79;100046.13;4975128;28;20146;-86
2023/07/31 01:38:58;;;;;;;14.52;5.15;;;17.30;99.90;;;17.50;88.21;100052.31;4975903;28;20070;-86
2023/07/31 01:41:27;;;;;;;14.35;5.40;;;17.30;99.90;;;17.42;88.62;100048.28;4977706;28;20074;-86
2023/07/31 01:43:54;;;;;;;13.68;4.75;;;17.20;99.90;;;17.30;88.55;100047.69;4989500;28;20130;-86
2023/07/31 01:46:21;;;;;;;13.82;5.20;;;17.20;99.90;;;17.25;89.06;100036.91;4982847;28;20129;-86
2023/07/31 01:48:49;;;;;;;14.32;4.30;;;17.20;99.90;;;17.31;89.26;100032.34;4971066;28;20143;-86
2023/07/31 01:51:16;;;;;;;14.23;5.10;;;17.20;99.90;;;17.40;89.20;100031.53;4966644;28;20062;-85
2023/07/31 01:53:43;;;;;;;14.40;4.57;;;17.20;99.90;;;17.39;88.16;100024.53;4974139;28;20074;-85
2023/07/31 01:56:11;;;;;;;14.50;4.75;;;17.20;99.90;;;17.38;88.64;100028.31;4978002;28;20082;-86
2023/07/31 01:58:40;;;;;;;13.85;4.20;;;17.20;99.90;;;17.41;88.58;100025.06;4987635;28;20503;-86
2023/07/31 02:01:07;;;;;;;14.15;5.30;;;17.20;99.90;;;17.39;88.11;100026.44;4973810;28;20133;-86
2023/07/31 02:03:35;;;;;;;15.30;4.68;;;17.20;99.90;;;17.34;88.34;100035.31;4986653;28;20049;-86
2023/07/31 02:06:02;;;;;;;14.43;4.57;;;17.20;99.90;;;17.32;88.20;100029.34;4981035;28;20523;-86
2023/07/31 02:08:29;;;;;;;16.23;5.47;;;17.10;99.90;;;17.29;88.76;100027.22;4981109;28;20042;-86
2023/07/31 02:10:57;;;;;;;11.25;4.53;;;17.10;99.90;;;17.40;88.29;100025.34;4973222;28;20082;-86
2023/07/31 02:13:24;;;;;;;19.20;5.25;;;17.20;99.90;;;17.46;87.51;100013.47;4973476;28;20562;-86
2023/07/31 02:15:54;;;;;;;15.18;4.60;;;17.20;99.90;;;17.42;87.13;100013.22;4973256;28;20047;-86
2023/07/31 02:18:22;;;;;;;14.85;5.07;;;17.20;99.90;;;17.39;86.84;100002.97;4971991;28;20039;-86
2023/07/31 02:20:51;;;;;;;15.73;5.05;;;17.20;99.90;;;17.33;87.76;100009.44;4971212;28;20098;-86
2023/07/31 02:23:19;;;;;;;10.57;4.40;;;17.20;99.90;;;17.38;87.69;100006.75;4991260;28;20042;-86
2023/07/31 02:25:47;;;;;;;18.42;5.43;;;17.20;99.90;;;17.40;87.60;100006.47;4971555;28;20046;-85
2023/07/31 02:28:15;;;;;;;17.65;5.03;;;17.20;99.90;;;17.35;86.26;100014.56;4969487;28;20071;-86
2023/07/31 02:30:46;;;;;;;20.88;4.82;;;17.20;99.90;;;17.33;86.50;100008.63;4979474;28;20035;-86
2023/07/31 02:33:16;;;;;;;;;;;17.10;99.90;;;17.37;86.69;100012.38;4973975;28;20385;-86
2023/07/31 02:35:43;;;;;;;18.70;5.40;;;17.10;99.90;;;17.31;86.25;100003.50;4982329;28;19922;-86
2023/07/31 02:38:10;;;;;;;16.08;5.70;;;17.10;99.90;;;17.34;86.29;100015.63;4974685;28;20524;-86
2023/07/31 02:40:37;;;;;;;17.30;5.50;;;17.10;99.90;;;17.33;86.22;100012.13;4972731;28;20039;-86
2023/07/31 02:43:05;;;;;;;14.07;4.95;;;17.10;99.90;;;17.37;86.16;100005.13;4980974;28;20046;-86
2023/07/31 02:45:32;;;;;;;13.52;5.03;;;17.10;99.90;;;17.38;85.93;100008.63;4966980;28;20455;-86
2023/07/31 02:48:00;;;;;;;14.40;4.78;;;17.20;99.90;;;17.35;86.01;99993.00;4973348;28;20043;-86
2023/07/31 02:50:28;;;;;;;11.85;4.75;;;17.10;99.90;;;17.36;86.14;99998.09;4982914;28;20046;-86
2023/07/31 02:52:56;;;;;;;19.08;5.30;;;17.10;99.90;;;17.39;85.66;100000.28;4964615;28;20077;-86
2023/07/31 02:55:23;;;;;;;17.90;5.25;;;17.10;99.90;;;17.35;85.54;99996.50;4977202;28;20125;-86
2023/07/31 02:57:52;;;;;;;15.82;4.93;;;17.10;99.90;;;17.29;85.36;100002.97;4976688;28;20070;-86
2023/07/31 03:00:20;;;;;;;15.55;5.03;;;17.10;99.90;;;17.30;85.89;100003.75;4987484;28;20046;-86
2023/07/31 03:02:47;;;;;;;15.85;5.03;;;17.10;99.90;;;17.31;85.53;99990.00;4998631;28;20046;-85
2023/07/31 03:05:15;;;;;;;17.13;5.60;;;17.10;99.90;;;17.37;85.38;99988.13;4978651;28;20129;-86
2023/07/31 03:07:44;;;;;;;17.45;5.30;;;17.10;99.90;;;17.33;84.83;99984.38;4976987;28;20038;-85
2023/07/31 03:10:12;;;;;;;14.98;5.18;;;17.10;99.90;;;17.31;85.48;99995.41;5004523;28;20073;-85
2023/07/31 03:12:39;;;;;;;15.15;5.05;;;17.10;99.90;;;17.34;85.87;99988.69;4986049;28;20105;-86
2023/07/31 03:15:08;;;;;;;14.40;5.22;;;17.10;99.90;;;17.37;85.85;99980.88;4967172;28;20408;-85
2023/07/31 03:17:36;;;;;;;15.70;4.72;;;17.10;99.90;;;17.35;85.27;99983.00;4973783;28;20097;-86
2023/07/31 03:20:05;;;;;;;16.00;5.28;;;17.10;99.90;;;17.38;85.13;99987.88;4970909;28;20047;-86
2023/07/31 03:22:32;;;;;;;14.60;5.15;;;17.20;99.90;;;17.40;85.73;99980.31;4977314;28;20058;-86
2023/07/31 03:25:01;;;;;;;19.67;5.88;;;17.20;99.90;;;17.38;85.40;99984.38;4981750;28;20137;-85
2023/07/31 03:27:28;;;;;;;18.67;5.53;;;17.10;99.90;;;17.39;86.06;99988.69;4971697;28;20133;-85
2023/07/31 03:29:55;;;;;;;16.02;5.13;;;17.10;99.90;;;17.41;85.59;99979.25;4996931;28;20843;-85
2023/07/31 03:32:22;;;;;;;15.48;5.03;;;17.10;99.90;;;17.38;85.70;99976.28;4973047;28;20780;-85
2023/07/31 03:34:51;;;;;;;13.95;5.13;;;17.10;99.90;;;17.40;86.07;99985.72;4966940;28;20047;-85
2023/07/31 03:37:18;;;;;;;18.35;5.65;;;17.10;99.90;;;17.35;86.18;99974.94;4988629;23;20051;-85
2023/07/31 03:39:45;;;;;;;17.88;5.70;;;17.10;99.90;;;17.33;86.19;99984.38;4939146;29;20101;-85
2023/07/31 03:42:14;;;;;;;12.52;4.82;;;17.10;99.90;;;17.33;86.72;99977.09;4946389;29;20035;-85
2023/07/31 03:44:41;;;;;;;17.52;5.85;;;17.10;99.90;;;17.33;86.91;99978.97;4941794;28;20100;-85
2023/07/31 03:47:10;;;;;;;14.30;4.93;;;17.10;99.90;;;17.36;86.70;99976.53;4949927;28;21760;-85
2023/07/31 03:49:38;;;;;;;15.23;5.65;;;17.20;99.90;;;17.28;86.54;99976.28;4938236;28;20054;-85
2023/07/31 03:52:06;;;;;;;15.52;5.18;;;17.10;99.90;;;17.27;87.16;99970.06;4946245;29;20043;-85
2023/07/31 03:54:34;;;;;;;14.57;5.28;;;17.10;99.90;;;17.28;87.49;99974.38;4951691;28;20064;-85
2023/07/31 03:57:01;;;;;;;12.75;4.97;;;17.10;99.90;;;17.23;87.13;99979.78;4926774;29;20495;-85
2023/07/31 03:59:30;;;;;;;17.55;6.03;;;17.10;99.90;;;17.27;87.15;99972.75;4932915;29;20047;-85
2023/07/31 04:01:57;;;;;;;15.85;5.75;;;17.10;99.90;;;17.30;87.36;99968.72;4947045;29;20044;-85
2023/07/31 04:04:24;;;;;;;17.65;5.32;;;17.10;99.90;;;17.34;87.41;99977.91;4944740;28;20091;-86
2023/07/31 04:06:51;;;;;;;14.40;5.68;;;17.20;99.90;;;17.35;87.23;99968.72;4934424;28;20040;-85
2023/07/31 04:09:19;;;;;;;16.38;4.97;;;17.20;99.90;;;17.38;86.82;99960.91;4935473;29;20068;-87
2023/07/31 04:11:46;;;;;;;15.98;5.40;;;17.20;99.90;;;17.40;86.92;99969.53;4938586;29;20039;-86
2023/07/31 04:14:13;;;;;;;14.35;5.03;;;17.20;99.90;;;17.40;87.15;99964.16;4921128;29;20394;-85
2023/07/31 04:16:42;;;;;;;14.90;5.65;;;17.20;99.90;;;17.46;87.36;99967.66;4938960;29;20126;-85
2023/07/31 04:19:10;;;;;;;14.52;5.18;;;17.20;99.90;;;17.41;87.30;99954.16;4944009;29;20075;-85
2023/07/31 04:21:37;;;;;;;15.48;6.05;;;17.20;99.90;;;17.34;87.10;99951.75;4924465;29;20502;-86
2023/07/31 04:24:05;;;;;;;18.25;5.55;;;17.20;99.90;;;17.35;87.53;99950.66;4939081;29;20463;-86
2023/07/31 04:26:32;;;;;;;11.43;5.18;;;17.20;99.90;;;17.36;87.88;99956.88;4941084;28;20042;-85
2023/07/31 04:29:00;;;;;;;12.27;5.25;;;17.20;99.90;;;17.36;87.99;99952.28;4945179;28;20118;-85
2023/07/31 04:31:27;;;;;;;10.98;4.65;;;17.20;99.90;;;17.40;88.44;99953.38;4947547;28;20480;-85
2023/07/31 04:33:56;;;;;;;16.02;4.93;;;17.20;99.90;;;17.40;88.27;99944.47;4936724;29;20058;-85
2023/07/31 04:36:23;;;;;;;14.25;5.20;;;17.20;99.90;;;17.39;88.13;99948.25;4945985;29;20147;-85
2023/07/31 04:38:50;;;;;;;15.55;5.10;;;17.20;99.90;;;17.38;88.30;99941.25;4939980;28;20047;-85
2023/07/31 04:41:17;;;;;;;16.42;5.05;;;17.20;99.90;;;17.37;88.24;99940.44;4936820;29;20039;-85
2023/07/31 04:43:45;;;;;;;18.30;5.60;;;17.20;99.90;;;17.41;88.65;99938.00;4937608;29;20071;-85
2023/07/31 04:46:12;;;;;;;13.07;4.85;;;17.20;99.90;;;17.44;88.55;99945.56;4933723;29;20490;-85
2023/07/31 04:48:39;;;;;;;11.52;5.25;;;17.20;99.90;;;17.48;87.96;99939.34;4959521;28;20146;-86
2023/07/31 04:51:09;;;;;;;14.60;5.10;;;17.30;99.90;;;17.40;88.35;99937.19;4938773;29;20055;-85
2023/07/31 04:53:36;;;;;;;12.45;4.88;;;17.20;99.90;;;17.39;88.61;99929.38;4936070;29;20048;-85
2023/07/31 04:56:04;;;;;;;15.13;5.47;;;17.20;99.90;;;17.42;88.51;99935.06;4939766;29;20122;-86
2023/07/31 04:58:31;;;;;;;15.70;5.22;;;17.20;99.90;;;17.43;88.47;99925.06;4936551;28;20123;-86
2023/07/31 05:00:58;;;;;;;17.35;5.40;;;17.30;99.90;;;17.47;88.61;99936.91;4938980;29;20139;-86
2023/07/31 05:03:25;;;;;;;10.25;5.10;;;17.30;99.90;;;17.48;89.02;99928.56;4925337;29;20109;-86
2023/07/31 05:05:53;;;;;;;14.13;5.60;;;17.30;99.90;;;17.46;88.93;99925.31;4943558;29;20051;-86
2023/07/31 05:08:21;;;;;;;12.40;5.78;;;17.30;99.90;;;17.50;89.45;99923.69;4942770;28;20043;-86
2023/07/31 05:10:49;;;;;;;12.20;5.30;;;17.30;99.90;;;17.55;89.08;99927.47;4939494;29;20043;-86
2023/07/31 05:13:16;;;;;;;14.70;5.55;;;17.40;99.90;;;17.58;89.18;99908.06;4947615;29;20489;-86
2023/07/31 05:15:43;;;;;;;16.55;5.78;;;17.40;99.90;;;17.59;88.65;99909.69;4941013;29;20040;-86
2023/07/31 05:18:10;;;;;;;17.67;6.07;;;17.40;99.90;;;17.61;88.70;99912.91;4942815;28;20035;-86
2023/07/31 05:20:38;;;;;;;11.25;4.72;;;17.40;99.90;;;17.57;89.07;99911.81;4939587;29;20047;-86
2023/07/31 05:23:05;;;;;;;13.10;5.72;;;17.40;99.90;;;17.54;89.50;99905.09;4953456;28;20135;-86
2023/07/31 05:25:34;;;;;;;16.10;5.63;;;17.40;99.90;;;17.51;89.18;99909.13;4940432;29;20050;-86
2023/07/31 05:28:01;;;;;;;13.70;5.80;;;17.40;99.90;;;17.49;89.95;99908.63;4947479;28;20393;-86
2023/07/31 05:30:30;;;;;;;18.80;6.43;;;17.40;99.90;;;17.48;90.00;99904.31;4944658;28;20079;-86
2023/07/31 05:32:58;;;;;;;14.25;5.50;;;17.40;99.90;;;17.53;89.70;99900.00;4948729;28;20519;-86
2023/07/31 05:35:25;;;;;;;17.42;5.47;;;17.40;99.90;;;17.48;89.60;99900.81;4940426;29;20130;-86
2023/07/31 05:37:52;;;;;;;15.73;5.90;;;17.40;99.90;;;17.37;90.45;99899.16;4943652;28;20197;-86
2023/07/31 05:40:20;;;;;;;12.50;5.63;;;17.40;99.90;;;17.39;91.54;99905.13;4961224;28;20126;-86
2023/07/31 05:42:48;;;;;;;16.58;6.18;;;17.30;99.90;;;17.45;91.17;99904.03;4948335;28;20585;-86
2023/07/31 05:45:16;;;;;;;17.40;6.05;;;17.40;99.90;;;17.46;91.46;99897.56;4937304;29;20044;-86
2023/07/31 05:47:43;;;;;;;16.50;6.07;;;17.40;99.90;;;17.50;90.77;99899.44;4957128;28;20130;-85
2023/07/31 05:50:11;;;;;;;16.25;5.82;;;17.40;99.90;;;17.50;90.32;99888.66;4934819;28;20899;-86
2023/07/31 05:52:38;;;;;;;16.33;6.15;;;17.40;99.90;;;17.47;91.13;99888.38;4940640;29;20095;-85
2023/07/31 05:55:08;;;;;;;13.98;5.88;;;17.40;99.90;;;17.49;90.81;99880.84;4941744;29;20042;-86
2023/07/31 05:57:36;;;;;;;14.13;5.35;;;17.40;99.90;;;17.43;91.10;99876.53;4924585;29;20054;-86
2023/07/31 06:00:06;;;;;;;13.10;6.45;;;17.30;99.90;;;17.49;90.80;99870.06;4940651;29;20043;-86
2023/07/31 06:02:36;;;;;;;18.05;6.43;;;17.40;99.90;;;17.48;90.39;99874.66;4935641;28;20134;-85
2023/07/31 06:05:05;;;;;;;21.13;5.93;;;17.40;99.90;;;17.49;90.44;99870.06;4944237;29;20074;-84
2023/07/31 06:07:33;;;;;;;13.55;5.72;;;17.40;99.90;;;17.50;90.41;99869.78;4938705;29;20514;-85
2023/07/31 06:10:04;;;;;;;18.40;6.22;;;17.40;99.90;;;17.54;90.49;99859.25;4939013;28;20102;-84
2023/07/31 06:12:32;;;;;;;15.20;6.10;;;17.40;99.90;;;17.57;90.50;99856.03;4943519;29;20130;-85
2023/07/31 06:14:59;;;;;;;18.25;5.68;;;17.40;99.90;;;17.64;90.69;99856.53;4941838;29;20464;-85
2023/07/31 06:17:28;;;;;;;12.43;5.38;;;17.50;99.90;;;17.68;90.38;99856.81;4938356;29;20035;-85
2023/07/31 06:19:55;;;;;;;15.60;5.80;;;17.50;99.90;;;17.72;90.40;99860.59;4939144;28;20122;-84
2023/07/31 06:22:22;;;;;;;14.95;6.47;;;17.50;99.90;;;17.63;89.64;99854.13;4933499;29;20036;-84
2023/07/31 06:24:50;;;;;;;14.65;6.00;;;17.50;99.90;;;17.63;89.71;99868.41;4928172;29;20126;-85
2023/07/31 06:27:17;;;;;;;14.02;5.93;;;17.50;99.90;;;17.66;90.18;99853.56;4933589;29;20036;-85
2023/07/31 06:29:45;;;;;;;16.33;6.60;;;17.50;99.90;;;17.67;90.26;99860.59;4953915;28;20055;-85
2023/07/31 06:32:12;;;;;;;12.85;5.95;;;17.50;99.90;;;17.67;90.82;99855.22;4949627;28;20051;-86
2023/07/31 06:34:40;;;;;;;15.98;6.25;;;17.50;99.90;;;17.69;90.95;99859.22;4936043;29;20531;-90
2023/07/31 06:37:08;;;;;;;15.55;6.10;;;17.50;99.90;;;17.68;91.23;99854.94;4937450;28;20502;-86
2023/07/31 06:39:35;;;;;;;17.33;6.30;;;17.50;99.90;;;17.70;91.00;99858.16;4940449;28;20453;-86
2023/07/31 06:42:03;;;;;;;9.60;5.15;;;17.50;99.90;;;17.71;91.12;99854.38;4929928;29;20046;-86
2023/07/31 06:44:31;;;;;;;16.45;6.35;;;17.50;99.90;;;17.72;91.68;99853.31;4940712;28;20044;-85
2023/07/31 06:46:58;;;;;;;14.35;6.47;;;17.50;99.90;;;17.65;92.54;99851.97;4932667;28;20047;-85
2023/07/31 06:49:26;;;;;;;13.77;5.88;;;17.50;99.90;;;17.55;92.79;99857.38;4927110;28;20571;-86
2023/07/31 06:51:55;;;;;;;11.85;5.88;;;17.40;99.90;;;17.55;92.69;99858.19;4932599;29;20485;-86
2023/07/31 06:54:22;;;;;;;26.80;5.68;;;17.40;99.90;;;17.54;93.34;99859.25;4934230;29;20044;-86
2023/07/31 06:56:50;;;;;;;14.60;6.43;;;17.40;99.90;;;17.55;93.12;99857.38;4936080;29;20103;-86
2023/07/31 06:59:17;;;;;;;13.95;5.93;;;17.40;99.90;;;17.58;93.43;99865.75;4937287;29;20044;-85
2023/07/31 07:01:50;;;;;;;13.10;5.15;;;17.50;99.90;;;17.60;93.49;99858.16;4935896;29;20051;-86
2023/07/31 07:04:20;;;;;;;13.85;5.85;;;17.50;99.90;;;17.64;93.39;99861.94;4917519;29;20475;-86
2023/07/31 07:06:47;;;;;;;11.32;5.97;;;17.50;99.90;;;17.64;93.78;99867.34;4935575;29;20048;-85
2023/07/31 07:09:16;;;;;;;15.25;5.70;;;17.50;99.90;;;17.62;94.00;99868.69;4933448;29;20513;-85
2023/07/31 07:11:43;;;;;;;11.43;5.15;;;17.50;99.90;;;17.63;94.41;99868.41;4933295;29;20074;-86
2023/07/31 07:14:11;;;;;;;16.40;6.43;;;17.50;99.90;;;17.64;94.70;99859.25;4939572;29;20039;-86
2023/07/31 07:16:40;;;;;;;11.82;5.15;;;17.50;99.90;;;17.62;95.00;99860.63;4935298;29;20039;-86
2023/07/31 07:19:08;;;;;;;10.90;5.05;;;17.50;99.90;;;17.59;94.57;99853.88;4936255;29;20035;-86
2023/07/31 07:21:35;;;;;;;13.68;5.35;;;17.50;99.90;;;17.60;95.33;99854.66;4934773;29;20090;-86
2023/07/31 07:24:03;;;;;;;16.05;6.20;;;17.50;99.90;;;17.56;95.72;99856.28;4952943;28;20122;-86
2023/07/31 07:26:31;;;;;;;10.77;5.50;;;17.50;99.90;;;17.56;95.87;99849.00;4935674;28;20048;-86
2023/07/31 07:29:01;;;;;;;13.73;5.18;;;17.50;99.90;;;17.61;95.81;99853.59;4950424;28;20048;-85
2023/07/31 07:31:29;;;;;;;10.73;5.32;;;17.50;99.90;;;17.61;96.18;99853.59;4928646;28;20052;-86
2023/07/31 07:33:57;;;;;;;9.80;5.30;;;17.50;99.90;;;17.63;95.99;99851.44;4944883;28;20051;-86
2023/07/31 07:36:24;;;;;;;12.90;5.85;;;17.50;99.90;;;17.65;95.96;99844.69;4928117;29;20044;-86
2023/07/31 07:38:51;;;;;;;12.60;6.07;;;17.50;99.90;;;17.62;96.15;99852.53;4931370;29;20059;-85
2023/07/31 07:41:18;;;;;;;9.18;5.25;;;17.50;99.90;;;17.64;95.44;99848.47;4918357;29;20525;-85
2023/07/31 07:46:30;;;;;;;11.20;5.32;;;17.50;99.90;;;17.62;96.12;99841.75;4940060;28;20444;-85
2023/07/31 07:48:57;;;;;;;15.82;6.28;;;17.50;99.90;;;17.63;96.48;99836.06;4937050;28;20071;-85
2023/07/31 07:51:24;;;;;;;9.35;4.90;;;17.50;99.90;;;17.66;96.84;99837.38;4933051;29;20058;-85
2023/07/31 07:53:52;;;;;;;11.73;5.05;;;17.60;99.90;;;17.60;97.59;99839.28;4933344;29;20054;-85
2023/07/31 07:56:19;;;;;;;11.60;5.40;;;17.60;99.90;;;17.62;97.25;99834.44;4932631;29;20099;-85
2023/07/31 07:58:49;;;;;;;8.35;4.57;;;17.60;99.90;;;17.64;98.19;99832.28;4937550;29;20126;-86
2023/07/31 08:01:16;;;;;;;13.35;5.30;;;17.60;99.90;;;17.67;97.89;99844.41;4918635;29;20521;-86
2023/07/31 08:03:44;;;;;;;12.10;5.13;;;17.60;99.90;;;17.66;97.14;99837.38;4921625;29;20047;-85
2023/07/31 08:06:11;;;;;;;9.55;5.00;;;17.60;99.90;;;17.61;96.39;99840.09;4949702;29;20044;-85
2023/07/31 08:08:39;;;;;;;13.90;4.90;;;17.50;99.90;;;17.57;96.57;99833.63;4937056;29;20051;-86
2023/07/31 08:11:06;;;;;;;11.57;4.60;;;17.50;99.90;;;17.61;96.99;99832.81;4943749;29;20122;-85
2023/07/31 08:13:34;;;;;;;11.20;5.32;;;17.50;99.90;;;17.58;96.58;99836.06;4942166;29;20039;-86
2023/07/31 08:16:02;;;;;;;13.23;4.95;;;17.50;99.90;;;17.59;97.65;99831.47;4954909;28;20047;-86
2023/07/31 08:18:30;;;;;;;10.23;4.40;;;17.50;99.90;;;17.59;97.33;99821.50;4936556;29;20102;-85
2023/07/31 08:20:57;;;;;;;12.07;4.47;;;17.50;99.90;;;17.64;97.91;99828.78;4936765;29;20050;-86
2023/07/31 08:23:24;;;;;;;12.85;4.75;;;17.60;99.90;;;17.71;98.51;99823.88;4939134;29;20504;-85
2023/07/31 08:25:52;;;;;;;9.20;4.07;;;17.70;99.90;;;17.70;98.20;99823.09;4936953;29;20050;-85
2023/07/31 08:28:19;;;;;;;10.40;4.25;;;17.70;99.90;;;17.70;98.30;99823.09;4936573;29;20040;-87
2023/07/31 08:30:47;;;;;;;8.80;4.28;;;17.70;99.90;;;17.69;97.74;99813.38;4936049;29;20122;-86
2023/07/31 08:33:16;;;;;;;9.13;3.72;;;17.70;99.90;;;17.64;98.01;99816.09;4937872;29;20130;-86
2023/07/31 08:35:44;;;;;;;8.75;3.95;;;17.70;99.90;;;17.69;97.37;99815.28;4937258;29;20049;-86
2023/07/31 08:38:11;;;;;;;7.15;3.78;;;17.70;99.90;;;17.67;97.07;99812.88;4942840;28;20044;-87
2023/07/31 08:40:38;;;;;;;11.68;4.05;;;17.70;99.90;;;17.65;97.02;99814.22;4947583;29;20043;-86
2023/07/31 08:43:06;;;;;;;7.78;3.80;;;17.70;99.90;;;17.66;97.93;99811.22;4950527;28;20039;-86
2023/07/31 08:45:35;;;;;;;11.32;4.38;;;17.60;99.90;;;17.71;97.78;99810.41;4936115;29;20048;-86
2023/07/31 08:48:24;;;;;;;10.73;4.22;;;17.70;99.90;;;17.72;97.70;99810.16;4941416;29;20093;-86
2023/07/31 08:50:54;;;;;;;8.57;4.07;;;17.70;99.90;;;17.64;97.52;99812.59;4928989;28;20055;-86
2023/07/31 08:53:21;;;;;;;10.10;3.70;;;17.60;99.90;;;17.64;97.06;99808.00;4933986;29;20513;-87
2023/07/31 08:55:50;;;;;;;9.10;4.13;;;17.60;99.90;;;17.58;97.19;99808.31;4941689;29;20109;-86
2023/07/31 08:58:19;;;;;;;8.13;3.88;;;17.50;99.90;;;17.50;96.65;99821.25;4944515;28;20142;-87
2023/07/31 09:00:48;;;;;;;11.00;4.30;;;17.50;99.90;;;17.50;97.54;99815.84;4950238;29;20047;-87
2023/07/31 09:03:19;;;;;;;8.10;3.58;;;17.50;99.90;;;17.51;97.63;99814.75;4953157;29;20047;-86
2023/07/31 09:05:47;;;;;;;;;;;17.50;99.90;;;17.54;98.21;99812.63;4939619;29;20052;-86
2023/07/31 09:08:22;;;;;;;9.57;3.65;;;17.50;99.90;;;17.55;98.57;99819.63;4962404;28;19922;-87
2023/07/31 09:10:50;;;;;;;7.63;3.30;;;17.50;99.90;;;17.50;98.88;99815.84;4944108;28;20048;-86
2023/07/31 09:13:18;;;;;;;8.77;3.70;;;17.50;99.90;;;17.51;99.58;99813.97;4944855;29;20040;-86
2023/07/31 09:15:47;;;;;;;8.25;4.22;;;17.50;99.90;;;17.58;99.71;99813.69;4958892;28;20389;-86
2023/07/31 09:18:19;;;;;;;9.15;3.60;;;17.50;99.90;;;17.59;98.93;99809.91;4936140;29;20472;-86
2023/07/31 09:21:00;;;;;;;8.63;3.75;;;17.60;99.90;;;17.63;98.31;99814.50;4935774;29;20521;-86
2023/07/31 09:23:40;;;;;;;6.15;3.03;;;17.60;99.90;;;17.62;99.51;99810.19;4935389;29;20051;-86
2023/07/31 09:26:42;;;;;;;7.65;3.17;;;17.60;99.90;;;17.68;100.00;99808.28;4954108;28;20044;-86
2023/07/31 09:29:47;;;;;;;;;;;;;;;;;;;;;
2023/07/31 09:32:34;;;;;;;8.30;3.42;;;17.60;99.90;;;17.70;100.00;99800.69;4952237;29;20063;-86
2023/07/31 09:35:22;;;;;;;6.55;3.30;;;17.70;99.90;;;17.67;100.00;99809.38;4937858;28;20127;-87
2023/07/31 09:37:52;;;;;;;7.10;3.20;;;17.70;99.90;;;17.57;99.98;99801.28;5006651;23;20101;-83
2023/07/31 09:40:30;;;;;;;5.75;3.30;;;17.60;99.90;;;17.65;100.00;99798.03;4986015;28;20488;-83
2023/07/31 09:42:59;;;;;;;6.55;3.38;;;17.60;99.90;;;17.67;99.95;99796.69;5003087;28;20137;-83
2023/07/31 09:45:27;;;;;;;5.35;2.97;;;17.70;99.90;;;17.73;99.87;99787.50;4976955;28;20046;-83
2023/07/31 09:47:55;;;;;;;7.25;2.90;;;17.70;99.90;;;17.73;100.00;99792.91;4995736;28;20042;-83
2023/07/31 09:50:25;;;;;;;6.72;3.13;;;17.70;99.90;;;17.77;100.00;99795.06;4964435;28;20039;-84
2023/07/31 09:52:53;;;;;;;8.07;3.37;;;17.70;99.90;;;17.72;99.10;99793.97;4976481;28;20498;-85
2023/07/31 09:55:21;;;;;;;7.40;3.10;;;17.70;99.90;;;17.73;99.58;99786.72;4986193;28;20058;-85
2023/07/31 09:57:50;;;;;;;5.40;2.80;;;17.70;99.90;;;17.79;99.74;99785.59;4981225;28;20031;-85
2023/07/31 10:00:21;;;;;;;5.20;2.83;;;17.80;99.90;;;17.81;99.64;99785.31;4974749;28;20138;-85
2023/07/31 10:02:49;;;;;;;7.05;3.20;;;17.80;99.90;;;17.77;99.02;99786.97;4970954;28;20149;-85
2023/07/31 10:05:17;;;;;;;5.88;3.00;;;17.80;99.90;;;17.75;99.38;99788.03;4989582;28;20042;-85
2023/07/31 10:07:52;;;;;;;5.28;2.75;;;17.80;99.90;;;17.72;99.34;99785.06;4980687;28;20050;-85
2023/07/31 10:10:22;;;;;;;8.10;2.80;;;17.70;99.90;;;17.73;100.00;99782.13;4980618;28;20082;-84
2023/07/31 10:12:50;;;;;;;5.53;2.78;;;17.70;99.90;;;17.68;100.00;99775.91;4990620;28;20419;-83
2023/07/31 10:15:18;;;;;;;6.55;2.83;;;17.70;99.90;;;17.70;100.00;99784.53;4998935;28;20042;-83
2023/07/31 10:17:47;;;;;;;4.68;2.60;;;17.70;99.90;;;17.67;100.00;99780.50;4992638;28;20567;-82
2023/07/31 10:20:16;;;;;;;6.00;2.75;;;17.70;99.90;;;17.73;100.00;99775.91;4971294;28;20074;-83
2023/07/31 10:22:45;;;;;;;6.28;2.80;;;17.70;99.90;;;17.73;100.00;99784.00;4979470;28;20046;-83